sensor_id;sensor_type;location;lat;lon;timestamp;temperature;humidity
11647;DHT22;5880;52.342;9.662;2022-11-27T00:01:31;8.50;74.50
11647;DHT22;5880;52.342;9.662;2022-11-27T00:03:58;8.50;74.50
11647;DHT22;5880;52.342;9.662;2022-11-27T00:06:26;8.50;74.60
11647;DHT22;5880;52.342;9.662;2022-11-27T00:08:54;8.50;74.60
11647;DHT22;5880;52.342;9.662;2022-11-27T00:11:23;8.50;74.60
11647;DHT22;5880;52.342;9.662;2022-11-27T00:13:50;8.40;74.50
11647;DHT22;5880;52.342;9.662;2022-11-27T00:16:17;8.40;74.50
11647;DHT22;5880;52.342;9.662;2022-11-27T00:18:45;8.40;74.60
11647;DHT22;5880;52.342;9.662;2022-11-27T00:21:13;8.40;74.60
11647;DHT22;5880;52.342;9.662;2022-11-27T00:23:47;8.30;74.50
11647;DHT22;5880;52.342;9.662;2022-11-27T00:26:14;8.30;74.50
11647;DHT22;5880;52.342;9.662;2022-11-27T00:28:40;8.30;74.60
11647;DHT22;5880;52.342;9.662;2022-11-27T00:31:11;8.30;74.50
11647;DHT22;5880;52.342;9.662;2022-11-27T00:33:39;8.20;74.50
11647;DHT22;5880;52.342;9.662;2022-11-27T00:36:06;8.20;74.40
11647;DHT22;5880;52.342;9.662;2022-11-27T00:38:33;8.20;74.30
11647;DHT22;5880;52.342;9.662;2022-11-27T00:41:10;8.20;74.30
11647;DHT22;5880;52.342;9.662;2022-11-27T00:43:39;8.20;74.10
11647;DHT22;5880;52.342;9.662;2022-11-27T00:46:05;8.20;74.40
11647;DHT22;5880;52.342;9.662;2022-11-27T00:48:31;8.20;74.40
11647;DHT22;5880;52.342;9.662;2022-11-27T00:51:02;8.10;74.50
11647;DHT22;5880;52.342;9.662;2022-11-27T00:53:31;8.10;74.50
11647;DHT22;5880;52.342;9.662;2022-11-27T00:55:57;8.10;74.60
11647;DHT22;5880;52.342;9.662;2022-11-27T00:58:24;8.10;74.80
11647;DHT22;5880;52.342;9.662;2022-11-27T01:00:55;8.00;74.80
11647;DHT22;5880;52.342;9.662;2022-11-27T01:03:23;8.10;74.90
11647;DHT22;5880;52.342;9.662;2022-11-27T01:05:50;8.00;74.90
11647;DHT22;5880;52.342;9.662;2022-11-27T01:08:17;8.00;75.00
11647;DHT22;5880;52.342;9.662;2022-11-27T01:10:54;8.10;75.10
11647;DHT22;5880;52.342;9.662;2022-11-27T01:13:23;8.10;75.00
11647;DHT22;5880;52.342;9.662;2022-11-27T01:16:04;8.10;75.20
11647;DHT22;5880;52.342;9.662;2022-11-27T01:18:33;8.10;74.80
11647;DHT22;5880;52.342;9.662;2022-11-27T01:21:00;8.10;75.00
11647;DHT22;5880;52.342;9.662;2022-11-27T01:23:27;8.10;75.00
11647;DHT22;5880;52.342;9.662;2022-11-27T01:25:53;8.10;75.20
11647;DHT22;5880;52.342;9.662;2022-11-27T01:28:20;8.10;74.80
11647;DHT22;5880;52.342;9.662;2022-11-27T01:30:47;8.10;75.20
11647;DHT22;5880;52.342;9.662;2022-11-27T01:33:13;8.10;75.30
11647;DHT22;5880;52.342;9.662;2022-11-27T01:35:38;8.20;75.20
11647;DHT22;5880;52.342;9.662;2022-11-27T01:38:04;8.20;75.30
11647;DHT22;5880;52.342;9.662;2022-11-27T01:40:30;8.20;75.00
11647;DHT22;5880;52.342;9.662;2022-11-27T01:42:55;8.20;75.10
11647;DHT22;5880;52.342;9.662;2022-11-27T01:45:22;8.30;75.10
11647;DHT22;5880;52.342;9.662;2022-11-27T01:47:57;8.20;74.90
11647;DHT22;5880;52.342;9.662;2022-11-27T01:50:28;8.20;74.60
11647;DHT22;5880;52.342;9.662;2022-11-27T01:53:07;8.30;74.80
11647;DHT22;5880;52.342;9.662;2022-11-27T01:55:43;8.20;74.40
11647;DHT22;5880;52.342;9.662;2022-11-27T01:58:17;8.20;74.70
11647;DHT22;5880;52.342;9.662;2022-11-27T02:00:46;8.20;74.60
11647;DHT22;5880;52.342;9.662;2022-11-27T02:03:12;8.20;74.80
11647;DHT22;5880;52.342;9.662;2022-11-27T02:05:37;8.20;74.80
11647;DHT22;5880;52.342;9.662;2022-11-27T02:08:09;8.30;75.00
11647;DHT22;5880;52.342;9.662;2022-11-27T02:13:29;8.20;75.00
11647;DHT22;5880;52.342;9.662;2022-11-27T02:18:59;8.30;74.50
11647;DHT22;5880;52.342;9.662;2022-11-27T02:22:06;8.30;74.90
11647;DHT22;5880;52.342;9.662;2022-11-27T02:24:58;8.30;75.10
11647;DHT22;5880;52.342;9.662;2022-11-27T02:27:55;8.30;75.00
11647;DHT22;5880;52.342;9.662;2022-11-27T02:30:33;8.30;74.20
11647;DHT22;5880;52.342;9.662;2022-11-27T02:33:10;8.30;74.70
11647;DHT22;5880;52.342;9.662;2022-11-27T02:35:44;8.30;74.80
11647;DHT22;5880;52.342;9.662;2022-11-27T02:38:42;8.40;74.80
11647;DHT22;5880;52.342;9.662;2022-11-27T02:41:21;8.40;73.90
11647;DHT22;5880;52.342;9.662;2022-11-27T02:43:52;8.40;74.70
11647;DHT22;5880;52.342;9.662;2022-11-27T02:46:20;8.40;74.80
11647;DHT22;5880;52.342;9.662;2022-11-27T02:48:54;8.40;74.70
11647;DHT22;5880;52.342;9.662;2022-11-27T02:51:27;8.40;74.50
11647;DHT22;5880;52.342;9.662;2022-11-27T02:54:03;8.40;74.70
11647;DHT22;5880;52.342;9.662;2022-11-27T02:56:33;8.40;74.50
11647;DHT22;5880;52.342;9.662;2022-11-27T02:59:04;8.40;74.40
11647;DHT22;5880;52.342;9.662;2022-11-27T03:01:39;8.40;74.30
11647;DHT22;5880;52.342;9.662;2022-11-27T03:04:15;8.40;74.10
11647;DHT22;5880;52.342;9.662;2022-11-27T03:06:48;8.40;73.90
11647;DHT22;5880;52.342;9.662;2022-11-27T03:09:23;8.40;74.00
11647;DHT22;5880;52.342;9.662;2022-11-27T03:11:54;8.30;73.90
11647;DHT22;5880;52.342;9.662;2022-11-27T03:14:21;8.40;73.90
11647;DHT22;5880;52.342;9.662;2022-11-27T03:19:29;8.30;73.80
11647;DHT22;5880;52.342;9.662;2022-11-27T03:21:58;8.20;73.40
11647;DHT22;5880;52.342;9.662;2022-11-27T03:24:26;8.20;73.70
11647;DHT22;5880;52.342;9.662;2022-11-27T03:26:54;8.20;73.70
11647;DHT22;5880;52.342;9.662;2022-11-27T03:29:46;8.20;73.70
11647;DHT22;5880;52.342;9.662;2022-11-27T03:32:15;8.10;73.10
11647;DHT22;5880;52.342;9.662;2022-11-27T03:34:42;8.10;73.80
11647;DHT22;5880;52.342;9.662;2022-11-27T03:37:08;8.10;74.00
11647;DHT22;5880;52.342;9.662;2022-11-27T03:39:34;8.00;73.90
11647;DHT22;5880;52.342;9.662;2022-11-27T03:53:44;7.90;73.60
11647;DHT22;5880;52.342;9.662;2022-11-27T04:01:36;7.90;74.20
11647;DHT22;5880;52.342;9.662;2022-11-27T04:04:01;7.90;74.40
11647;DHT22;5880;52.342;9.662;2022-11-27T04:06:27;7.90;74.40
11647;DHT22;5880;52.342;9.662;2022-11-27T04:08:53;7.90;74.40
11647;DHT22;5880;52.342;9.662;2022-11-27T04:11:19;8.00;74.50
11647;DHT22;5880;52.342;9.662;2022-11-27T04:13:44;7.90;74.50
11647;DHT22;5880;52.342;9.662;2022-11-27T04:16:10;8.00;74.50
11647;DHT22;5880;52.342;9.662;2022-11-27T04:18:36;8.00;74.40
11647;DHT22;5880;52.342;9.662;2022-11-27T04:21:01;8.00;74.40
11647;DHT22;5880;52.342;9.662;2022-11-27T04:23:28;7.90;74.30
11647;DHT22;5880;52.342;9.662;2022-11-27T04:25:53;7.90;74.20
11647;DHT22;5880;52.342;9.662;2022-11-27T04:28:19;8.00;74.10
11647;DHT22;5880;52.342;9.662;2022-11-27T04:30:49;8.00;74.30
11647;DHT22;5880;52.342;9.662;2022-11-27T04:33:15;8.00;74.30
11647;DHT22;5880;52.342;9.662;2022-11-27T04:35:41;7.90;74.30
11647;DHT22;5880;52.342;9.662;2022-11-27T04:38:07;8.00;74.30
11647;DHT22;5880;52.342;9.662;2022-11-27T04:40:33;8.00;74.20
11647;DHT22;5880;52.342;9.662;2022-11-27T04:42:59;8.00;74.20
11647;DHT22;5880;52.342;9.662;2022-11-27T04:45:24;8.00;74.00
11647;DHT22;5880;52.342;9.662;2022-11-27T04:47:50;8.00;73.90
11647;DHT22;5880;52.342;9.662;2022-11-27T04:50:16;8.00;74.00
11647;DHT22;5880;52.342;9.662;2022-11-27T04:52:41;8.00;74.00
11647;DHT22;5880;52.342;9.662;2022-11-27T04:55:07;7.90;73.90
11647;DHT22;5880;52.342;9.662;2022-11-27T04:57:34;8.00;74.00
11647;DHT22;5880;52.342;9.662;2022-11-27T04:59:59;8.00;74.00
11647;DHT22;5880;52.342;9.662;2022-11-27T05:02:25;8.00;74.10
11647;DHT22;5880;52.342;9.662;2022-11-27T05:04:51;7.90;74.00
11647;DHT22;5880;52.342;9.662;2022-11-27T05:07:16;7.90;73.90
11647;DHT22;5880;52.342;9.662;2022-11-27T05:09:42;7.90;73.90
11647;DHT22;5880;52.342;9.662;2022-11-27T05:12:08;8.00;73.70
11647;DHT22;5880;52.342;9.662;2022-11-27T05:14:33;7.90;73.70
11647;DHT22;5880;52.342;9.662;2022-11-27T05:16:59;7.90;73.70
11647;DHT22;5880;52.342;9.662;2022-11-27T05:19:27;7.90;73.60
11647;DHT22;5880;52.342;9.662;2022-11-27T05:21:54;7.90;73.60
11647;DHT22;5880;52.342;9.662;2022-11-27T05:24:22;7.90;73.60
11647;DHT22;5880;52.342;9.662;2022-11-27T05:26:49;7.90;73.50
11647;DHT22;5880;52.342;9.662;2022-11-27T05:29:15;7.90;73.60
11647;DHT22;5880;52.342;9.662;2022-11-27T05:31:42;7.80;73.40
11647;DHT22;5880;52.342;9.662;2022-11-27T05:34:08;7.80;73.40
11647;DHT22;5880;52.342;9.662;2022-11-27T05:36:34;7.80;73.50
11647;DHT22;5880;52.342;9.662;2022-11-27T05:39:02;7.80;73.70
11647;DHT22;5880;52.342;9.662;2022-11-27T05:41:31;7.80;73.70
11647;DHT22;5880;52.342;9.662;2022-11-27T05:43:57;7.80;73.70
11647;DHT22;5880;52.342;9.662;2022-11-27T05:46:23;7.80;73.80
11647;DHT22;5880;52.342;9.662;2022-11-27T05:48:49;7.80;73.90
11647;DHT22;5880;52.342;9.662;2022-11-27T05:51:16;7.80;73.80
11647;DHT22;5880;52.342;9.662;2022-11-27T05:53:42;7.80;73.90
11647;DHT22;5880;52.342;9.662;2022-11-27T05:56:10;7.80;73.80
11647;DHT22;5880;52.342;9.662;2022-11-27T05:58:40;7.80;73.70
11647;DHT22;5880;52.342;9.662;2022-11-27T06:01:08;7.80;73.70
11647;DHT22;5880;52.342;9.662;2022-11-27T06:03:34;7.80;73.60
11647;DHT22;5880;52.342;9.662;2022-11-27T06:06:13;7.80;74.30
11647;DHT22;5880;52.342;9.662;2022-11-27T06:08:42;7.70;73.10
11647;DHT22;5880;52.342;9.662;2022-11-27T06:11:14;7.70;73.40
11647;DHT22;5880;52.342;9.662;2022-11-27T06:13:45;7.70;73.30
11647;DHT22;5880;52.342;9.662;2022-11-27T06:16:14;7.60;73.20
11647;DHT22;5880;52.342;9.662;2022-11-27T06:18:41;7.60;73.30
11647;DHT22;5880;52.342;9.662;2022-11-27T06:21:10;7.60;73.20
11647;DHT22;5880;52.342;9.662;2022-11-27T06:23:40;7.60;73.20
11647;DHT22;5880;52.342;9.662;2022-11-27T06:26:19;7.60;73.20
11647;DHT22;5880;52.342;9.662;2022-11-27T06:28:54;7.60;72.90
11647;DHT22;5880;52.342;9.662;2022-11-27T06:31:23;7.50;73.30
11647;DHT22;5880;52.342;9.662;2022-11-27T06:33:53;7.50;73.60
11647;DHT22;5880;52.342;9.662;2022-11-27T06:36:21;7.50;73.80
11647;DHT22;5880;52.342;9.662;2022-11-27T06:38:48;7.50;74.00
11647;DHT22;5880;52.342;9.662;2022-11-27T06:41:16;7.50;74.10
11647;DHT22;5880;52.342;9.662;2022-11-27T06:43:44;7.60;74.20
11647;DHT22;5880;52.342;9.662;2022-11-27T06:46:15;7.60;74.30
11647;DHT22;5880;52.342;9.662;2022-11-27T06:48:43;7.60;74.10
11647;DHT22;5880;52.342;9.662;2022-11-27T06:51:12;7.70;74.30
11647;DHT22;5880;52.342;9.662;2022-11-27T06:53:42;7.70;74.20
11647;DHT22;5880;52.342;9.662;2022-11-27T06:56:11;7.70;74.10
11647;DHT22;5880;52.342;9.662;2022-11-27T06:58:40;7.70;74.00
11647;DHT22;5880;52.342;9.662;2022-11-27T07:01:08;7.70;73.90
11647;DHT22;5880;52.342;9.662;2022-11-27T07:03:36;7.70;73.70
11647;DHT22;5880;52.342;9.662;2022-11-27T07:06:05;7.80;73.70
11647;DHT22;5880;52.342;9.662;2022-11-27T07:08:33;7.70;73.40
11647;DHT22;5880;52.342;9.662;2022-11-27T07:11:05;7.70;73.30
11647;DHT22;5880;52.342;9.662;2022-11-27T07:13:37;7.70;73.30
11647;DHT22;5880;52.342;9.662;2022-11-27T07:16:05;7.70;73.30
11647;DHT22;5880;52.342;9.662;2022-11-27T07:18:40;7.70;73.40
11647;DHT22;5880;52.342;9.662;2022-11-27T07:21:08;7.70;73.30
11647;DHT22;5880;52.342;9.662;2022-11-27T07:23:35;7.60;73.30
11647;DHT22;5880;52.342;9.662;2022-11-27T07:26:12;7.60;73.30
11647;DHT22;5880;52.342;9.662;2022-11-27T07:28:40;7.60;73.20
11647;DHT22;5880;52.342;9.662;2022-11-27T07:31:08;7.60;73.50
11647;DHT22;5880;52.342;9.662;2022-11-27T07:33:35;7.60;73.70
11647;DHT22;5880;52.342;9.662;2022-11-27T07:36:18;7.60;73.90
11647;DHT22;5880;52.342;9.662;2022-11-27T07:38:46;7.60;73.90
11647;DHT22;5880;52.342;9.662;2022-11-27T07:41:13;7.60;74.20
11647;DHT22;5880;52.342;9.662;2022-11-27T07:43:41;7.60;74.20
11647;DHT22;5880;52.342;9.662;2022-11-27T07:46:15;7.60;74.30
11647;DHT22;5880;52.342;9.662;2022-11-27T07:48:44;7.60;74.30
11647;DHT22;5880;52.342;9.662;2022-11-27T07:51:15;7.70;74.50
11647;DHT22;5880;52.342;9.662;2022-11-27T07:53:43;7.70;74.50
11647;DHT22;5880;52.342;9.662;2022-11-27T07:56:11;7.60;74.50
11647;DHT22;5880;52.342;9.662;2022-11-27T07:58:38;7.70;74.60
11647;DHT22;5880;52.342;9.662;2022-11-27T08:01:06;7.70;74.50
11647;DHT22;5880;52.342;9.662;2022-11-27T08:03:33;7.80;74.50
11647;DHT22;5880;52.342;9.662;2022-11-27T08:05:59;7.80;74.60
11647;DHT22;5880;52.342;9.662;2022-11-27T08:08:25;7.80;74.50
11647;DHT22;5880;52.342;9.662;2022-11-27T08:10:50;7.80;74.60
11647;DHT22;5880;52.342;9.662;2022-11-27T08:13:16;7.80;74.60
11647;DHT22;5880;52.342;9.662;2022-11-27T08:15:42;7.90;74.70
11647;DHT22;5880;52.342;9.662;2022-11-27T08:18:07;7.90;74.80
11647;DHT22;5880;52.342;9.662;2022-11-27T08:20:33;7.90;74.80
11647;DHT22;5880;52.342;9.662;2022-11-27T08:22:59;8.00;74.90
11647;DHT22;5880;52.342;9.662;2022-11-27T08:25:25;7.90;75.10
11647;DHT22;5880;52.342;9.662;2022-11-27T08:27:51;8.00;75.00
11647;DHT22;5880;52.342;9.662;2022-11-27T08:30:16;8.10;75.20
11647;DHT22;5880;52.342;9.662;2022-11-27T08:32:43;8.10;75.30
11647;DHT22;5880;52.342;9.662;2022-11-27T08:35:10;8.10;75.30
11647;DHT22;5880;52.342;9.662;2022-11-27T08:37:36;8.20;75.40
11647;DHT22;5880;52.342;9.662;2022-11-27T08:40:03;8.20;75.40
11647;DHT22;5880;52.342;9.662;2022-11-27T08:42:29;8.30;75.40
11647;DHT22;5880;52.342;9.662;2022-11-27T08:44:55;8.30;75.30
11647;DHT22;5880;52.342;9.662;2022-11-27T08:47:21;8.40;75.10
11647;DHT22;5880;52.342;9.662;2022-11-27T08:49:46;8.40;75.10
11647;DHT22;5880;52.342;9.662;2022-11-27T08:52:12;8.40;75.00
11647;DHT22;5880;52.342;9.662;2022-11-27T08:54:38;8.50;75.20
11647;DHT22;5880;52.342;9.662;2022-11-27T08:57:04;8.60;75.10
11647;DHT22;5880;52.342;9.662;2022-11-27T08:59:30;8.60;74.90
11647;DHT22;5880;52.342;9.662;2022-11-27T09:01:55;8.60;75.00
11647;DHT22;5880;52.342;9.662;2022-11-27T09:04:21;8.60;75.00
11647;DHT22;5880;52.342;9.662;2022-11-27T09:06:47;8.70;75.20
11647;DHT22;5880;52.342;9.662;2022-11-27T09:09:13;8.70;75.10
11647;DHT22;5880;52.342;9.662;2022-11-27T09:11:39;8.80;75.10
11647;DHT22;5880;52.342;9.662;2022-11-27T09:14:06;8.80;75.00
11647;DHT22;5880;52.342;9.662;2022-11-27T09:16:33;8.90;75.20
11647;DHT22;5880;52.342;9.662;2022-11-27T09:19:00;8.90;75.20
11647;DHT22;5880;52.342;9.662;2022-11-27T09:21:28;9.00;75.20
11647;DHT22;5880;52.342;9.662;2022-11-27T09:23:58;9.10;75.40
11647;DHT22;5880;52.342;9.662;2022-11-27T09:26:27;9.10;75.40
11647;DHT22;5880;52.342;9.662;2022-11-27T09:28:54;9.10;75.10
11647;DHT22;5880;52.342;9.662;2022-11-27T09:31:21;9.20;75.10
11647;DHT22;5880;52.342;9.662;2022-11-27T09:33:47;9.20;74.90
11647;DHT22;5880;52.342;9.662;2022-11-27T09:36:16;9.30;75.70
11647;DHT22;5880;52.342;9.662;2022-11-27T09:38:44;9.30;74.60
11647;DHT22;5880;52.342;9.662;2022-11-27T09:43:48;9.40;74.60
11647;DHT22;5880;52.342;9.662;2022-11-27T09:46:30;9.40;74.20
11647;DHT22;5880;52.342;9.662;2022-11-27T09:49:03;9.40;74.20
11647;DHT22;5880;52.342;9.662;2022-11-27T09:51:48;9.40;74.80
11647;DHT22;5880;52.342;9.662;2022-11-27T09:54:46;9.50;74.70
11647;DHT22;5880;52.342;9.662;2022-11-27T09:57:24;9.50;74.50
11647;DHT22;5880;52.342;9.662;2022-11-27T10:00:19;9.50;74.90
11647;DHT22;5880;52.342;9.662;2022-11-27T10:02:46;9.60;74.90
11647;DHT22;5880;52.342;9.662;2022-11-27T10:05:25;9.60;75.10
11647;DHT22;5880;52.342;9.662;2022-11-27T10:08:22;9.70;74.70
11647;DHT22;5880;52.342;9.662;2022-11-27T10:14:15;9.80;74.40
11647;DHT22;5880;52.342;9.662;2022-11-27T10:17:01;9.80;74.20
11647;DHT22;5880;52.342;9.662;2022-11-27T10:19:47;9.90;74.90
11647;DHT22;5880;52.342;9.662;2022-11-27T10:25:41;10.00;75.80
11647;DHT22;5880;52.342;9.662;2022-11-27T10:31:39;10.10;73.00
11647;DHT22;5880;52.342;9.662;2022-11-27T10:36:56;10.10;74.10
11647;DHT22;5880;52.342;9.662;2022-11-27T10:39:54;10.10;74.70
11647;DHT22;5880;52.342;9.662;2022-11-27T10:45:05;10.20;74.60
11647;DHT22;5880;52.342;9.662;2022-11-27T10:47:42;10.20;74.00
11647;DHT22;5880;52.342;9.662;2022-11-27T10:50:15;10.20;74.30
11647;DHT22;5880;52.342;9.662;2022-11-27T10:52:54;10.20;74.10
11647;DHT22;5880;52.342;9.662;2022-11-27T11:01:59;10.30;74.60
11647;DHT22;5880;52.342;9.662;2022-11-27T11:04:30;10.30;73.60
11647;DHT22;5880;52.342;9.662;2022-11-27T11:06:57;10.30;74.70
11647;DHT22;5880;52.342;9.662;2022-11-27T11:09:31;10.30;74.70
11647;DHT22;5880;52.342;9.662;2022-11-27T11:12:13;10.40;74.00
11647;DHT22;5880;52.342;9.662;2022-11-27T11:14:54;10.40;74.20
11647;DHT22;5880;52.342;9.662;2022-11-27T11:17:25;10.40;74.10
11647;DHT22;5880;52.342;9.662;2022-11-27T11:20:22;10.40;74.40
11647;DHT22;5880;52.342;9.662;2022-11-27T11:22:49;10.40;73.40
11647;DHT22;5880;52.342;9.662;2022-11-27T11:25:17;10.40;74.40
11647;DHT22;5880;52.342;9.662;2022-11-27T11:27:45;10.40;74.50
11647;DHT22;5880;52.342;9.662;2022-11-27T11:30:22;10.40;74.40
11647;DHT22;5880;52.342;9.662;2022-11-27T11:32:57;10.50;74.20
11647;DHT22;5880;52.342;9.662;2022-11-27T11:35:32;10.50;74.50
11647;DHT22;5880;52.342;9.662;2022-11-27T11:38:01;10.50;74.50
11647;DHT22;5880;52.342;9.662;2022-11-27T11:40:30;10.50;74.70
11647;DHT22;5880;52.342;9.662;2022-11-27T11:43:03;10.60;74.50
11647;DHT22;5880;52.342;9.662;2022-11-27T11:45:44;10.60;74.10
11647;DHT22;5880;52.342;9.662;2022-11-27T11:48:25;10.60;73.80
11647;DHT22;5880;52.342;9.662;2022-11-27T11:50:54;10.70;73.40
11647;DHT22;5880;52.342;9.662;2022-11-27T11:53:35;10.70;74.30
11647;DHT22;5880;52.342;9.662;2022-11-27T11:56:32;10.70;73.90
11647;DHT22;5880;52.342;9.662;2022-11-27T11:59:20;10.70;73.30
11647;DHT22;5880;52.342;9.662;2022-11-27T12:02:30;10.70;73.40
11647;DHT22;5880;52.342;9.662;2022-11-27T12:05:53;10.70;73.70
11647;DHT22;5880;52.342;9.662;2022-11-27T12:11:34;10.80;72.90
11647;DHT22;5880;52.342;9.662;2022-11-27T12:14:22;10.70;74.00
11647;DHT22;5880;52.342;9.662;2022-11-27T12:20:14;10.70;73.70
11647;DHT22;5880;52.342;9.662;2022-11-27T12:22:59;10.70;73.60
11647;DHT22;5880;52.342;9.662;2022-11-27T12:25:42;10.70;73.40
11647;DHT22;5880;52.342;9.662;2022-11-27T12:28:51;10.70;73.90
11647;DHT22;5880;52.342;9.662;2022-11-27T12:31:57;10.80;72.80
11647;DHT22;5880;52.342;9.662;2022-11-27T12:35:17;10.80;73.00
11647;DHT22;5880;52.342;9.662;2022-11-27T12:38:15;10.80;73.40
11647;DHT22;5880;52.342;9.662;2022-11-27T12:43:50;10.80;73.20
11647;DHT22;5880;52.342;9.662;2022-11-27T12:47:11;10.80;74.00
11647;DHT22;5880;52.342;9.662;2022-11-27T12:49:14;10.80;73.50
11647;DHT22;5880;52.342;9.662;2022-11-27T12:51:56;10.80;73.30
11647;DHT22;5880;52.342;9.662;2022-11-27T12:54:35;10.80;73.00
11647;DHT22;5880;52.342;9.662;2022-11-27T12:57:16;10.90;73.80
11647;DHT22;5880;52.342;9.662;2022-11-27T12:59:59;10.90;73.20
11647;DHT22;5880;52.342;9.662;2022-11-27T13:02:38;10.90;72.80
11647;DHT22;5880;52.342;9.662;2022-11-27T13:05:16;10.90;73.30
11647;DHT22;5880;52.342;9.662;2022-11-27T13:08:18;10.90;73.20
11647;DHT22;5880;52.342;9.662;2022-11-27T13:10:54;10.90;72.60
11647;DHT22;5880;52.342;9.662;2022-11-27T13:13:34;10.90;73.50
11647;DHT22;5880;52.342;9.662;2022-11-27T13:16:06;11.00;73.10
11647;DHT22;5880;52.342;9.662;2022-11-27T13:18:38;10.90;73.50
11647;DHT22;5880;52.342;9.662;2022-11-27T13:21:13;11.00;73.80
11647;DHT22;5880;52.342;9.662;2022-11-27T13:23:42;11.00;73.40
11647;DHT22;5880;52.342;9.662;2022-11-27T13:26:20;11.00;73.70
11647;DHT22;5880;52.342;9.662;2022-11-27T13:32:20;11.00;72.30
11647;DHT22;5880;52.342;9.662;2022-11-27T13:34:52;11.00;73.20
11647;DHT22;5880;52.342;9.662;2022-11-27T13:37:36;11.00;73.30
11647;DHT22;5880;52.342;9.662;2022-11-27T13:42:35;11.00;73.30
11647;DHT22;5880;52.342;9.662;2022-11-27T13:45:16;11.00;73.30
11647;DHT22;5880;52.342;9.662;2022-11-27T13:47:45;11.00;73.40
11647;DHT22;5880;52.342;9.662;2022-11-27T13:50:15;11.00;73.40
11647;DHT22;5880;52.342;9.662;2022-11-27T13:53:05;11.00;73.30
11647;DHT22;5880;52.342;9.662;2022-11-27T13:55:34;11.00;72.10
11647;DHT22;5880;52.342;9.662;2022-11-27T13:58:03;11.00;73.30
11647;DHT22;5880;52.342;9.662;2022-11-27T14:00:39;11.00;73.30
11647;DHT22;5880;52.342;9.662;2022-11-27T14:03:18;11.00;73.00
11647;DHT22;5880;52.342;9.662;2022-11-27T14:05:47;11.00;73.30
11647;DHT22;5880;52.342;9.662;2022-11-27T14:08:28;11.00;73.20
11647;DHT22;5880;52.342;9.662;2022-11-27T14:11:10;11.00;72.70
11647;DHT22;5880;52.342;9.662;2022-11-27T14:13:45;11.00;72.20
11647;DHT22;5880;52.342;9.662;2022-11-27T14:18:52;11.00;72.80
11647;DHT22;5880;52.342;9.662;2022-11-27T14:21:42;11.00;73.10
11647;DHT22;5880;52.342;9.662;2022-11-27T14:24:26;11.00;71.70
11647;DHT22;5880;52.342;9.662;2022-11-27T14:26:58;11.00;71.90
11647;DHT22;5880;52.342;9.662;2022-11-27T14:29:28;11.00;73.00
11647;DHT22;5880;52.342;9.662;2022-11-27T14:31:59;11.00;72.50
11647;DHT22;5880;52.342;9.662;2022-11-27T14:34:30;11.00;72.70
11647;DHT22;5880;52.342;9.662;2022-11-27T14:36:57;11.00;72.60
11647;DHT22;5880;52.342;9.662;2022-11-27T14:39:29;11.00;72.70
11647;DHT22;5880;52.342;9.662;2022-11-27T14:42:04;11.00;72.50
11647;DHT22;5880;52.342;9.662;2022-11-27T14:44:32;11.00;71.80
11647;DHT22;5880;52.342;9.662;2022-11-27T14:47:04;11.00;72.50
11647;DHT22;5880;52.342;9.662;2022-11-27T14:49:33;11.00;71.80
11647;DHT22;5880;52.342;9.662;2022-11-27T14:52:03;11.00;73.00
11647;DHT22;5880;52.342;9.662;2022-11-27T14:54:38;10.90;72.00
11647;DHT22;5880;52.342;9.662;2022-11-27T14:57:05;10.90;71.80
11647;DHT22;5880;52.342;9.662;2022-11-27T14:59:35;10.90;71.90
11647;DHT22;5880;52.342;9.662;2022-11-27T15:04:40;10.90;71.90
11647;DHT22;5880;52.342;9.662;2022-11-27T15:07:19;10.90;72.10
11647;DHT22;5880;52.342;9.662;2022-11-27T15:09:50;10.90;70.30
11647;DHT22;5880;52.342;9.662;2022-11-27T15:12:22;10.90;71.60
11647;DHT22;5880;52.342;9.662;2022-11-27T15:15:05;10.90;71.60
11647;DHT22;5880;52.342;9.662;2022-11-27T15:17:36;10.90;71.10
11647;DHT22;5880;52.342;9.662;2022-11-27T15:20:13;10.90;71.60
11647;DHT22;5880;52.342;9.662;2022-11-27T15:22:50;10.90;71.00
11647;DHT22;5880;52.342;9.662;2022-11-27T15:25:39;10.90;71.00
11647;DHT22;5880;52.342;9.662;2022-11-27T15:30:57;10.90;69.90
11647;DHT22;5880;52.342;9.662;2022-11-27T15:33:32;10.80;71.50
11647;DHT22;5880;52.342;9.662;2022-11-27T15:36:13;10.80;71.00
11647;DHT22;5880;52.342;9.662;2022-11-27T15:38:42;10.80;69.80
11647;DHT22;5880;52.342;9.662;2022-11-27T15:41:20;10.80;71.30
11647;DHT22;5880;52.342;9.662;2022-11-27T15:43:51;10.80;70.50
11647;DHT22;5880;52.342;9.662;2022-11-27T15:46:28;10.80;71.50
11647;DHT22;5880;52.342;9.662;2022-11-27T15:48:58;10.80;71.00
11647;DHT22;5880;52.342;9.662;2022-11-27T15:51:24;10.80;71.50
11647;DHT22;5880;52.342;9.662;2022-11-27T15:53:50;10.80;71.40
11647;DHT22;5880;52.342;9.662;2022-11-27T15:56:16;10.80;71.30
11647;DHT22;5880;52.342;9.662;2022-11-27T15:58:42;10.80;71.30
11647;DHT22;5880;52.342;9.662;2022-11-27T16:01:09;10.80;71.40
11647;DHT22;5880;52.342;9.662;2022-11-27T16:03:35;10.80;71.00
11647;DHT22;5880;52.342;9.662;2022-11-27T16:06:05;10.80;71.20
11647;DHT22;5880;52.342;9.662;2022-11-27T16:08:32;10.80;70.90
11647;DHT22;5880;52.342;9.662;2022-11-27T16:11:04;10.80;71.20
11647;DHT22;5880;52.342;9.662;2022-11-27T16:13:31;10.80;70.60
11647;DHT22;5880;52.342;9.662;2022-11-27T16:16:05;10.80;71.00
11647;DHT22;5880;52.342;9.662;2022-11-27T16:18:33;10.80;70.80
11647;DHT22;5880;52.342;9.662;2022-11-27T16:21:04;10.80;70.90
11647;DHT22;5880;52.342;9.662;2022-11-27T16:23:31;10.80;70.90
11647;DHT22;5880;52.342;9.662;2022-11-27T16:25:57;10.80;70.90
11647;DHT22;5880;52.342;9.662;2022-11-27T16:28:24;10.80;71.00
11647;DHT22;5880;52.342;9.662;2022-11-27T16:30:52;10.80;70.90
11647;DHT22;5880;52.342;9.662;2022-11-27T16:33:19;10.80;70.90
11647;DHT22;5880;52.342;9.662;2022-11-27T16:35:46;10.80;70.80
11647;DHT22;5880;52.342;9.662;2022-11-27T16:38:12;10.70;71.00
11647;DHT22;5880;52.342;9.662;2022-11-27T16:40:38;10.70;70.90
11647;DHT22;5880;52.342;9.662;2022-11-27T16:43:03;10.70;70.90
11647;DHT22;5880;52.342;9.662;2022-11-27T16:45:29;10.80;70.90
11647;DHT22;5880;52.342;9.662;2022-11-27T16:47:55;10.80;70.80
11647;DHT22;5880;52.342;9.662;2022-11-27T16:50:21;10.70;70.70
11647;DHT22;5880;52.342;9.662;2022-11-27T16:52:48;10.70;70.40
11647;DHT22;5880;52.342;9.662;2022-11-27T16:55:13;10.70;70.30
11647;DHT22;5880;52.342;9.662;2022-11-27T16:57:39;10.70;70.50
11647;DHT22;5880;52.342;9.662;2022-11-27T17:00:05;10.70;70.60
11647;DHT22;5880;52.342;9.662;2022-11-27T17:02:32;10.70;70.60
11647;DHT22;5880;52.342;9.662;2022-11-27T17:04:57;10.70;70.80
11647;DHT22;5880;52.342;9.662;2022-11-27T17:07:23;10.80;70.70
11647;DHT22;5880;52.342;9.662;2022-11-27T17:09:49;10.70;70.40
11647;DHT22;5880;52.342;9.662;2022-11-27T17:12:14;10.80;69.90
11647;DHT22;5880;52.342;9.662;2022-11-27T17:14:42;10.70;70.20
11647;DHT22;5880;52.342;9.662;2022-11-27T17:17:08;10.70;70.00
11647;DHT22;5880;52.342;9.662;2022-11-27T17:19:33;10.80;70.20
11647;DHT22;5880;52.342;9.662;2022-11-27T17:21:59;10.70;70.00
11647;DHT22;5880;52.342;9.662;2022-11-27T17:24:25;10.70;70.30
11647;DHT22;5880;52.342;9.662;2022-11-27T17:26:52;10.80;70.40
11647;DHT22;5880;52.342;9.662;2022-11-27T17:29:19;10.80;69.90
11647;DHT22;5880;52.342;9.662;2022-11-27T17:31:46;10.80;70.10
11647;DHT22;5880;52.342;9.662;2022-11-27T17:34:14;10.70;70.00
11647;DHT22;5880;52.342;9.662;2022-11-27T17:36:42;10.80;70.10